createdAt,value
2023-03-20T00:00:30.865Z,89.28
2023-03-20T00:03:23.126Z,76.20
2023-03-20T00:05:56.066Z,78.15
2023-03-20T00:08:29.705Z,88.13
2023-03-20T00:11:02.659Z,86.22
2023-03-20T00:13:35.759Z,89.90
2023-03-20T00:16:08.745Z,91.05
2023-03-20T00:18:41.952Z,88.40
2023-03-20T00:21:19.047Z,85.88
2023-03-20T00:23:51.603Z,82.53
2023-03-20T00:26:28.334Z,98.38
2023-03-20T00:29:01.896Z,80.93
2023-03-20T00:31:39.562Z,97.53
2023-03-20T00:34:15.431Z,94.18
2023-03-20T00:36:48.298Z,93.22
2023-03-20T00:39:21.442Z,97.93
2023-03-20T00:42:03.439Z,112.75
2023-03-20T00:44:41.967Z,103.65
2023-03-20T00:47:21.493Z,101.53
2023-03-20T00:49:55.969Z,89.95
2023-03-20T00:52:28.952Z,97.45
2023-03-20T00:55:01.626Z,111.32
2023-03-20T00:57:44.291Z,105.95
2023-03-20T01:00:30.709Z,103.25
2023-03-20T01:03:13.101Z,100.22
2023-03-20T01:05:46.445Z,95.38
2023-03-20T01:08:25.027Z,103.00
2023-03-20T01:10:58.915Z,96.38
2023-03-20T01:13:33.444Z,84.93
2023-03-20T01:16:06.707Z,83.40
2023-03-20T01:18:39.521Z,82.00
2023-03-20T01:21:12.391Z,94.28
2023-03-20T01:23:45.574Z,85.65
2023-03-20T01:26:30.308Z,87.18
2023-03-20T01:29:05.151Z,86.63
2023-03-20T01:31:37.666Z,90.68
2023-03-20T01:34:11.825Z,88.70
2023-03-20T01:36:53.516Z,89.70
2023-03-20T01:39:34.976Z,77.75
2023-03-20T01:42:07.928Z,81.57
2023-03-20T01:44:40.774Z,87.80
2023-03-20T01:47:24.305Z,83.18
2023-03-20T01:50:19.062Z,82.53
2023-03-20T01:52:58.450Z,82.32
2023-03-20T01:55:32.684Z,83.22
2023-03-20T01:58:12.357Z,87.00
2023-03-20T02:00:48.628Z,85.60
2023-03-20T02:03:22.059Z,79.38
2023-03-20T02:05:57.137Z,78.78
2023-03-20T02:08:31.478Z,78.07
2023-03-20T02:11:05.425Z,85.13
2023-03-20T02:13:38.086Z,86.30
2023-03-20T02:16:13.289Z,90.20
2023-03-20T02:18:50.653Z,80.22
2023-03-20T02:21:44.755Z,94.28
2023-03-20T02:24:55.382Z,85.85
2023-03-20T02:27:47.087Z,85.78
2023-03-20T02:30:44.133Z,90.35
2023-03-20T02:33:19.754Z,91.10
2023-03-20T02:36:22.350Z,85.88
2023-03-20T02:39:12.304Z,86.57
2023-03-20T02:41:55.016Z,87.80
2023-03-20T02:44:49.093Z,78.88
2023-03-20T02:47:30.710Z,72.35
2023-03-20T02:50:25.494Z,83.10
2023-03-20T02:53:21.080Z,87.93
2023-03-20T02:56:07.738Z,79.90
2023-03-20T02:58:55.851Z,85.22
2023-03-20T03:01:41.666Z,83.55
2023-03-20T03:04:20.243Z,82.28
2023-03-20T03:06:55.958Z,75.50
2023-03-20T03:09:35.688Z,92.55
2023-03-20T03:12:20.744Z,83.60
2023-03-20T03:15:04.752Z,79.75
2023-03-20T03:17:39.945Z,88.60
2023-03-20T03:20:23.911Z,83.55
2023-03-20T03:22:57.218Z,85.00
2023-03-20T03:25:41.904Z,81.88
2023-03-20T03:28:53.802Z,81.35
2023-03-20T03:31:27.569Z,88.38
2023-03-20T03:34:01.846Z,74.03
2023-03-20T03:36:43.148Z,96.05
2023-03-20T03:39:30.017Z,87.15
2023-03-20T03:42:12.450Z,93.78
2023-03-20T03:44:53.946Z,93.68
2023-03-20T03:47:33.911Z,87.60
2023-03-20T03:50:20.517Z,82.13
2023-03-20T03:52:58.421Z,91.70
2023-03-20T03:55:38.597Z,85.85
2023-03-20T03:58:29.755Z,84.82
2023-03-20T04:01:04.655Z,87.55
2023-03-20T04:03:40.231Z,87.32
2023-03-20T04:06:13.132Z,99.28
2023-03-20T04:08:45.753Z,104.00
2023-03-20T04:11:21.917Z,97.32
2023-03-20T04:13:55.147Z,80.90
2023-03-20T04:16:28.158Z,88.05
2023-03-20T04:19:00.743Z,86.93
2023-03-20T04:21:33.551Z,88.05
2023-03-20T04:24:06.788Z,87.82
2023-03-20T04:26:40.189Z,96.85
2023-03-20T04:29:13.501Z,97.85
2023-03-20T04:31:46.814Z,103.60
2023-03-20T04:34:19.631Z,89.70
2023-03-20T04:36:52.514Z,93.00
2023-03-20T04:39:25.981Z,92.25
2023-03-20T04:41:58.810Z,96.80
2023-03-20T04:44:31.503Z,96.00
2023-03-20T04:47:04.478Z,93.57
2023-03-20T04:49:36.966Z,96.47
2023-03-20T04:52:10.050Z,96.43
2023-03-20T04:54:42.702Z,97.53
2023-03-20T04:57:16.280Z,100.75
2023-03-20T04:59:48.879Z,95.35
2023-03-20T05:02:21.915Z,93.35
2023-03-20T05:04:54.431Z,101.72
2023-03-20T05:07:27.203Z,99.97
2023-03-20T05:10:00.106Z,95.90
2023-03-20T05:12:33.028Z,96.35
2023-03-20T05:15:05.916Z,99.18
2023-03-20T05:17:38.892Z,93.93
2023-03-20T05:20:11.718Z,101.25
2023-03-20T05:22:44.579Z,108.55
2023-03-20T05:25:17.263Z,111.63
2023-03-20T05:27:50.138Z,112.47
2023-03-20T05:30:22.924Z,107.20
2023-03-20T05:32:56.723Z,102.03
2023-03-20T05:35:29.312Z,108.60
2023-03-20T05:38:02.524Z,100.82
2023-03-20T05:40:35.216Z,103.40
2023-03-20T05:43:08.550Z,106.88
2023-03-20T05:45:42.862Z,101.60
2023-03-20T05:48:15.709Z,97.97
2023-03-20T05:50:48.526Z,101.13
2023-03-20T05:53:21.770Z,99.13
2023-03-20T05:55:54.355Z,93.43
2023-03-20T05:58:27.332Z,87.57
2023-03-20T06:00:59.901Z,84.97
2023-03-20T06:03:33.143Z,89.63
2023-03-20T06:06:06.361Z,81.78
2023-03-20T06:08:39.241Z,83.90
2023-03-20T06:11:11.928Z,87.07
2023-03-20T06:13:44.781Z,94.63
2023-03-20T06:16:17.434Z,97.30
2023-03-20T06:18:50.391Z,88.07
2023-03-20T06:21:23.091Z,86.60
2023-03-20T06:23:55.976Z,79.90
2023-03-20T06:26:28.490Z,87.95
2023-03-20T06:29:01.696Z,86.15
2023-03-20T06:31:34.308Z,90.25
2023-03-20T06:34:07.334Z,88.43
2023-03-20T06:36:39.967Z,80.78
2023-03-20T06:39:16.750Z,84.18
2023-03-20T06:41:49.406Z,104.68
2023-03-20T06:44:22.414Z,88.22
2023-03-20T06:46:55.116Z,79.05
2023-03-20T06:49:28.285Z,81.68
2023-03-20T06:52:00.858Z,85.10
2023-03-20T06:54:33.700Z,78.50
2023-03-20T06:57:06.247Z,75.32
2023-03-20T06:59:39.096Z,76.78
2023-03-20T07:02:11.914Z,67.72
2023-03-20T07:04:45.069Z,71.93
2023-03-20T07:07:17.967Z,77.60
2023-03-20T07:09:50.857Z,76.75
2023-03-20T07:12:28.461Z,80.40
2023-03-20T07:15:01.353Z,74.35
2023-03-20T07:17:33.946Z,74.88
2023-03-20T07:20:08.646Z,71.63
2023-03-20T07:22:41.748Z,66.88
2023-03-20T07:25:15.444Z,67.85
2023-03-20T07:27:50.857Z,59.55
2023-03-20T07:30:23.862Z,68.13
2023-03-20T07:32:56.508Z,63.35
2023-03-20T07:35:29.426Z,65.60
2023-03-20T07:38:02.203Z,60.05
2023-03-20T07:40:35.196Z,61.28
2023-03-20T07:43:07.713Z,59.50
2023-03-20T07:45:40.945Z,62.53
2023-03-20T07:48:13.508Z,59.22
2023-03-20T07:50:46.455Z,58.03
2023-03-20T07:53:18.990Z,60.50
2023-03-20T07:55:51.900Z,59.95
2023-03-20T07:58:24.726Z,53.63
2023-03-20T08:00:59.102Z,57.42
2023-03-20T08:03:32.079Z,50.40
2023-03-20T08:06:10.117Z,47.85
2023-03-20T08:08:42.993Z,50.13
2023-03-20T08:11:15.771Z,58.30
2023-03-20T08:13:48.343Z,49.03
2023-03-20T08:16:21.436Z,52.75
2023-03-20T08:18:58.440Z,52.72
2023-03-20T08:21:32.870Z,49.05
2023-03-20T08:24:06.248Z,45.03
2023-03-20T08:26:39.127Z,50.70
2023-03-20T08:29:12.261Z,44.67
2023-03-20T08:31:45.912Z,44.83
2023-03-20T08:34:18.631Z,44.67
2023-03-20T08:36:52.759Z,37.97
2023-03-20T08:39:25.300Z,43.08
2023-03-20T08:42:00.354Z,44.83
2023-03-20T08:44:33.791Z,38.78
2023-03-20T08:47:07.977Z,40.15
2023-03-20T08:49:40.708Z,35.72
2023-03-20T08:52:13.744Z,35.42
2023-03-20T08:54:46.613Z,47.05
2023-03-20T08:57:19.662Z,39.05
2023-03-20T08:59:52.148Z,36.80
2023-03-20T09:02:24.986Z,40.95
2023-03-20T09:04:57.672Z,36.00
2023-03-20T09:07:30.605Z,33.15
2023-03-20T09:10:04.439Z,32.95
2023-03-20T09:12:37.601Z,30.50
2023-03-20T09:15:10.782Z,27.10
2023-03-20T09:17:43.614Z,29.13
2023-03-20T09:20:16.290Z,30.23
2023-03-20T09:22:49.172Z,30.48
2023-03-20T09:25:22.155Z,24.70
2023-03-20T09:27:55.436Z,28.80
2023-03-20T09:30:28.016Z,32.97
2023-03-20T09:33:00.910Z,28.50
2023-03-20T09:35:33.633Z,29.77
2023-03-20T09:38:06.875Z,28.08
2023-03-20T09:40:52.459Z,25.50
2023-03-20T09:43:37.881Z,31.15
2023-03-20T09:46:28.784Z,34.22
2023-03-20T09:49:34.149Z,36.63
2023-03-20T09:52:24.835Z,37.33
2023-03-20T09:55:21.763Z,36.10
2023-03-20T09:57:58.508Z,32.42
2023-03-20T10:00:34.832Z,29.27
2023-03-20T10:03:40.676Z,27.90
2023-03-20T10:06:16.938Z,25.30
2023-03-20T10:08:50.115Z,28.63
2023-03-20T10:11:41.319Z,25.42
2023-03-20T10:14:18.676Z,27.10
2023-03-20T10:17:05.422Z,25.65
2023-03-20T10:19:51.035Z,23.85
2023-03-20T10:22:29.435Z,20.90
2023-03-20T10:25:30.873Z,28.02
2023-03-20T10:28:14.147Z,27.13
2023-03-20T10:31:03.313Z,26.08
2023-03-20T10:34:13.828Z,25.33
2023-03-20T10:37:05.867Z,22.85
2023-03-20T10:39:50.029Z,25.33
2023-03-20T10:42:31.031Z,26.45
2023-03-20T10:45:22.055Z,29.48
2023-03-20T10:47:56.444Z,22.05
2023-03-20T10:50:43.621Z,25.40
2023-03-20T10:53:51.980Z,21.67
2023-03-20T10:56:43.114Z,26.33
2023-03-20T10:59:24.470Z,24.48
2023-03-20T11:01:57.333Z,24.15
2023-03-20T11:04:29.908Z,26.38
2023-03-20T11:07:26.050Z,27.60
2023-03-20T11:10:04.732Z,22.33
2023-03-20T11:12:41.172Z,27.33
2023-03-20T11:15:31.567Z,23.00
2023-03-20T11:18:06.420Z,23.27
2023-03-20T11:20:44.537Z,23.75
2023-03-20T11:23:24.054Z,17.60
2023-03-20T11:26:03.083Z,14.97
2023-03-20T11:28:38.657Z,20.67
2023-03-20T11:31:14.474Z,24.92
2023-03-20T11:34:18.788Z,16.90
2023-03-20T11:37:16.871Z,25.35
2023-03-20T11:40:11.465Z,28.63
2023-03-20T11:42:56.492Z,23.55
2023-03-20T11:45:36.194Z,19.00
2023-03-20T11:48:21.275Z,26.05
2023-03-20T11:51:08.281Z,21.00
2023-03-20T11:53:55.750Z,21.98
2023-03-20T11:56:32.799Z,20.30
2023-03-20T11:59:13.827Z,24.02
2023-03-20T12:01:52.291Z,19.67
2023-03-20T12:04:29.814Z,23.42
2023-03-20T12:07:14.658Z,17.60
2023-03-20T12:09:58.591Z,22.55
2023-03-20T12:12:49.947Z,21.80
2023-03-20T12:15:31.433Z,24.95
2023-03-20T12:18:34.543Z,22.45
2023-03-20T12:21:12.743Z,22.60
2023-03-20T12:23:51.596Z,26.33
2023-03-20T12:26:57.007Z,27.00
2023-03-20T12:29:52.771Z,30.67
2023-03-20T12:32:36.717Z,27.27
2023-03-20T12:35:27.882Z,24.88
2023-03-20T12:38:00.538Z,28.35
2023-03-20T12:40:44.000Z,27.75
2023-03-20T12:43:22.328Z,24.00
2023-03-20T12:46:24.673Z,24.15
2023-03-20T12:49:26.667Z,28.52
2023-03-20T12:52:11.466Z,23.02
2023-03-20T12:55:08.164Z,23.95
2023-03-20T12:58:11.126Z,20.88
2023-03-20T13:01:00.428Z,21.30
2023-03-20T13:03:46.620Z,17.58
2023-03-20T13:06:26.506Z,25.88
2023-03-20T13:09:20.542Z,21.88
2023-03-20T13:12:33.276Z,23.45
2023-03-20T13:15:15.275Z,21.35
2023-03-20T13:18:07.710Z,18.88
2023-03-20T13:21:06.213Z,24.55
2023-03-20T13:23:50.944Z,18.33
2023-03-20T13:26:52.516Z,22.45
2023-03-20T13:29:46.954Z,25.60
2023-03-20T13:32:31.783Z,19.80
2023-03-20T13:35:25.341Z,22.67
2023-03-20T13:38:10.710Z,24.95
2023-03-20T13:40:45.837Z,27.33
2023-03-20T13:43:27.364Z,28.23
2023-03-20T13:46:08.796Z,28.20
2023-03-20T13:48:43.986Z,26.33
2023-03-20T13:51:22.847Z,29.77
2023-03-20T13:54:01.559Z,21.53
2023-03-20T13:57:30.710Z,29.08
2023-03-20T14:00:22.654Z,27.98
2023-03-20T14:03:24.154Z,24.63
2023-03-20T14:05:57.436Z,29.13
2023-03-20T14:08:33.353Z,28.80
2023-03-20T14:11:21.297Z,27.40
2023-03-20T14:14:08.475Z,25.88
2023-03-20T14:16:42.097Z,24.70
2023-03-20T14:19:15.066Z,22.92
2023-03-20T14:21:50.208Z,28.45
2023-03-20T14:24:26.693Z,30.65
2023-03-20T14:27:00.772Z,27.73
2023-03-20T14:29:37.865Z,29.73
2023-03-20T14:32:16.885Z,30.85
2023-03-20T14:34:49.405Z,30.27
2023-03-20T14:37:35.546Z,25.05
2023-03-20T14:40:21.999Z,33.13
2023-03-20T14:43:32.670Z,26.73
2023-03-20T14:46:31.182Z,30.38
2023-03-20T14:49:37.273Z,31.20
2023-03-20T14:52:14.932Z,31.98
2023-03-20T14:54:55.770Z,32.90
2023-03-20T14:57:48.676Z,33.25
2023-03-20T15:00:28.331Z,31.00
2023-03-20T15:03:14.451Z,35.97
2023-03-20T15:05:50.102Z,34.38
2023-03-20T15:08:25.266Z,28.30
2023-03-20T15:11:05.191Z,34.13
2023-03-20T15:13:40.471Z,36.45
2023-03-20T15:16:16.345Z,32.65
2023-03-20T15:18:52.593Z,30.85
2023-03-20T15:21:38.097Z,29.35
2023-03-20T15:24:25.894Z,27.35
2023-03-20T15:27:01.613Z,29.58
2023-03-20T15:29:34.737Z,28.20
2023-03-20T15:32:14.393Z,24.25
2023-03-20T15:34:51.335Z,23.27
2023-03-20T15:37:28.475Z,19.85
2023-03-20T15:40:12.278Z,20.70
2023-03-20T15:43:06.035Z,19.38
2023-03-20T15:45:45.103Z,16.75
2023-03-20T15:48:19.902Z,20.23
2023-03-20T15:51:00.826Z,17.23
2023-03-20T15:53:37.319Z,17.65
2023-03-20T15:56:18.608Z,12.05
2023-03-20T15:58:52.837Z,11.82
2023-03-20T16:01:26.661Z,13.05
2023-03-20T16:04:00.098Z,9.77
2023-03-20T16:06:34.070Z,9.48
2023-03-20T16:09:08.032Z,9.40
2023-03-20T16:11:43.639Z,5.75
2023-03-20T16:14:21.401Z,9.13
2023-03-20T16:16:56.248Z,7.57
2023-03-20T16:19:29.717Z,9.73
2023-03-20T16:22:13.305Z,7.88
2023-03-20T16:24:49.836Z,15.00
2023-03-20T16:27:39.820Z,13.88
2023-03-20T16:33:12.885Z,19.30
2023-03-20T16:35:49.362Z,16.75
2023-03-20T16:38:26.418Z,16.83
2023-03-20T16:41:14.565Z,18.70
2023-03-20T16:43:50.190Z,21.10
2023-03-20T16:46:28.877Z,11.05
2023-03-20T16:49:32.346Z,17.35
2023-03-20T16:52:14.699Z,23.65
2023-03-20T16:54:49.647Z,16.50
2023-03-20T16:57:22.657Z,16.30
2023-03-20T17:00:01.951Z,14.98
2023-03-20T17:02:41.718Z,23.73
2023-03-20T17:05:14.267Z,21.35
2023-03-20T17:07:56.316Z,24.83
2023-03-20T17:10:29.519Z,21.33
2023-03-20T17:13:02.657Z,17.38
2023-03-20T17:15:37.273Z,18.70
2023-03-20T17:18:13.770Z,18.77
2023-03-20T17:20:46.369Z,20.48
2023-03-20T17:23:22.019Z,21.80
2023-03-20T17:25:55.144Z,25.20
2023-03-20T17:28:34.104Z,22.75
2023-03-20T17:31:07.264Z,23.08
2023-03-20T17:33:40.187Z,22.30
2023-03-20T17:36:24.506Z,23.73
2023-03-20T17:38:58.292Z,17.27
2023-03-20T17:41:33.771Z,27.70
2023-03-20T17:44:06.627Z,23.02
2023-03-20T17:46:56.251Z,28.95
2023-03-20T17:49:30.442Z,24.92
2023-03-20T17:52:04.986Z,30.05
2023-03-20T17:54:38.092Z,26.33
2023-03-20T17:57:31.880Z,27.92
2023-03-20T18:00:08.752Z,31.88
2023-03-20T18:02:41.286Z,19.30
2023-03-20T18:05:14.294Z,22.60
2023-03-20T18:07:46.842Z,26.92
2023-03-20T18:10:32.238Z,20.08
2023-03-20T18:13:04.825Z,27.45
2023-03-20T18:15:40.301Z,28.92
2023-03-20T18:18:12.908Z,30.83
2023-03-20T18:20:47.124Z,35.92
2023-03-20T18:23:19.612Z,31.90
2023-03-20T18:25:52.429Z,27.50
2023-03-20T18:28:24.931Z,30.83
2023-03-20T18:30:57.981Z,26.77
2023-03-20T18:33:30.458Z,36.50
2023-03-20T18:36:03.363Z,33.92
2023-03-20T18:38:35.837Z,34.97
2023-03-20T18:41:08.937Z,24.67
2023-03-20T18:43:41.939Z,22.67
2023-03-20T18:46:16.771Z,20.58
2023-03-20T18:48:51.861Z,32.33
2023-03-20T18:51:25.349Z,35.60
2023-03-20T18:53:57.959Z,37.15
2023-03-20T18:56:32.307Z,40.28
2023-03-20T18:59:08.182Z,30.42
2023-03-20T19:01:44.137Z,42.97
2023-03-20T19:04:16.993Z,33.65
2023-03-20T19:06:50.056Z,25.33
2023-03-20T19:09:22.630Z,35.13
2023-03-20T19:11:55.627Z,38.58
2023-03-20T19:14:28.515Z,35.53
2023-03-20T19:17:01.351Z,31.08
2023-03-20T19:19:34.936Z,44.30
2023-03-20T19:22:13.052Z,32.60
2023-03-20T19:24:48.386Z,33.70
2023-03-20T19:27:21.745Z,31.65
2023-03-20T19:29:57.164Z,37.20
2023-03-20T19:32:29.943Z,34.97
2023-03-20T19:35:43.632Z,35.60
2023-03-20T19:37:56.344Z,38.33
2023-03-20T19:40:36.525Z,40.28
2023-03-20T19:43:11.702Z,38.42
2023-03-20T19:45:44.910Z,37.17
2023-03-20T19:48:19.657Z,42.63
2023-03-20T19:50:53.258Z,36.67
2023-03-20T19:53:29.235Z,39.50
2023-03-20T19:56:01.781Z,33.83
2023-03-20T19:58:34.805Z,37.20
2023-03-20T20:01:15.100Z,33.85
2023-03-20T20:03:49.867Z,37.53
2023-03-20T20:06:29.634Z,35.85
2023-03-20T20:09:07.001Z,41.65
2023-03-20T20:11:39.818Z,35.63
2023-03-20T20:14:14.738Z,35.63
2023-03-20T20:16:48.984Z,34.80
2023-03-20T20:19:21.959Z,35.67
2023-03-20T20:22:24.419Z,33.60
2023-03-20T20:24:50.346Z,37.42
2023-03-20T20:27:22.881Z,32.17
2023-03-20T20:29:56.326Z,38.78
2023-03-20T20:32:30.065Z,38.33
2023-03-20T20:38:44.587Z,42.65
2023-03-20T20:40:50.918Z,37.15
2023-03-20T20:43:50.695Z,39.92
2023-03-20T20:46:16.536Z,44.42
2023-03-20T20:48:50.452Z,34.90
2023-03-20T20:51:23.290Z,40.42
2023-03-20T20:53:55.779Z,38.72
2023-03-20T20:56:28.531Z,39.03
2023-03-20T20:59:01.115Z,32.25
2023-03-20T21:01:36.554Z,34.58
2023-03-20T21:04:09.493Z,25.10
2023-03-20T21:09:34.824Z,16.52
2023-03-20T21:12:32.842Z,24.30
2023-03-20T21:15:07.325Z,22.30
2023-03-20T21:17:57.891Z,20.70
2023-03-20T21:20:33.772Z,16.00
2023-03-20T21:23:06.789Z,18.15
2023-03-20T21:25:41.337Z,20.55
2023-03-20T21:28:15.793Z,14.13
2023-03-20T21:31:12.523Z,9.98
2023-03-20T21:33:41.234Z,17.95
2023-03-20T21:36:13.776Z,15.43
2023-03-20T21:39:06.909Z,10.55
2023-03-20T21:41:42.866Z,11.27
2023-03-20T21:44:56.224Z,17.83
2023-03-20T21:48:04.252Z,12.35
2023-03-20T21:53:38.395Z,13.77
2023-03-20T21:59:24.118Z,18.10
2023-03-20T22:02:02.496Z,15.32
2023-03-20T22:05:18.715Z,4.22
2023-03-20T22:07:59.558Z,13.65
2023-03-20T22:14:06.576Z,16.05
2023-03-20T22:16:48.972Z,12.13
2023-03-20T22:19:47.784Z,10.75
2023-03-20T22:22:31.979Z,17.95
2023-03-20T22:28:15.200Z,19.98
2023-03-20T22:31:26.817Z,15.93
2023-03-20T22:34:10.472Z,14.30
2023-03-20T22:37:14.183Z,12.55
2023-03-20T22:39:45.732Z,16.25
2023-03-20T22:45:00.435Z,8.70
2023-03-20T22:47:36.032Z,9.35
2023-03-20T22:50:09.237Z,14.05
2023-03-20T22:52:49.242Z,15.10
2023-03-20T22:55:24.931Z,15.73
2023-03-20T22:58:06.777Z,17.27
2023-03-20T23:00:42.200Z,17.27
2023-03-20T23:03:29.680Z,15.00
2023-03-20T23:06:19.086Z,12.80
2023-03-20T23:08:56.500Z,13.77
2023-03-20T23:11:29.791Z,15.60
2023-03-20T23:14:03.821Z,16.95
2023-03-20T23:16:38.501Z,18.73
2023-03-20T23:19:11.479Z,13.52
2023-03-20T23:21:43.948Z,17.88
2023-03-20T23:24:16.957Z,22.45
2023-03-20T23:26:49.492Z,9.98
2023-03-20T23:29:22.244Z,11.95
2023-03-20T23:31:54.777Z,10.07
2023-03-20T23:34:27.574Z,9.40
2023-03-20T23:37:00.101Z,12.05
2023-03-20T23:39:32.900Z,11.95
2023-03-20T23:42:17.277Z,9.68
2023-03-20T23:44:57.457Z,9.20
2023-03-20T23:47:44.045Z,9.73
2023-03-20T23:50:30.096Z,12.55
2023-03-20T23:53:19.096Z,10.75
2023-03-20T23:55:55.253Z,8.35
2023-03-20T23:58:28.300Z,10.27
